Michigan Bluff, California
Current Conditions -  °F | °C
As of 7:52 AM on Thursday 30 Oct 2014 (Local Time) from KBLU Reporting Station
Clear Clear  
Wind Chill: 58°   Ceiling: Unl
Heat Index: 58°   Visibility: 10mi
Dew Point: 27°   Wind: 3mph
Humidity: 31%   Direction: 120°ESE
Pressure: 30.14"   Gusts: NA
Location:  39.0724°N, 120.571°W
Report Text: KBLU 301452Z AUTO 12003KT 10SM CLR 14/M03 A3014 RMK AO2 SLP145 T01441028 55000
Loading
Personal Weather Stations






























Interactive Weather Map
Tropical Storm Tracking
New forecast layout! Learn more

10-Day Weather Forecast

Advertisements
Track Severe Weather on mobile